Guenther Schulte — VRGK8 — position and weather

sailwx.info

Track history (hours):
 
Tides and Currents Weather Stations Pressure Air Temp Water Temp Dewpoint Dewpoint Depression Visibility Wind Speed Wind Dir Waves Ship Positions

Guenther Schulte

Last reported at 2015-Feb-20 23:27 UTC. Time now 2015-Mar-02 11:18 UTC.
Position N 30°06' W 119°33'.
Warning: this ship's position is 9 days out of date.

Length 231 m; draft 12.3 m.

Type: Ship (hazmat cat C). MMSI: 477728800.

Date/timePositionNaut miles runAvg speedWind from/ knotsBaromVisibWave heightAir tempDewpointWater temp
2015-Feb-20 23:27N 30°06' W 119°33'1719.3
2015-Feb-20 22:33N 30°19' W 119°20'1919.3
2015-Feb-20 21:33N 30°34' W 119°05'1919.0
2015-Feb-20 20:33N 30°48' W 118°51'1818.4
2015-Feb-20 19:33N 31°01' W 118°36'1818.3
2015-Feb-20 18:33N 31°15' W 118°21'1918.3
2015-Feb-20 17:33N 31°28' W 118°07'1818.3
2015-Feb-20 16:33N 31°42' W 117°52'1615.4
2015-Feb-20 15:31N 31°53' W 117°39'1614.5
2015-Feb-20 14:26N 32°09' W 117°38'1213.4
2015-Feb-20 13:33N 32°21' W 117°38'1313.2
2015-Feb-20 12:33N 32°34' W 117°38'1413.6
2015-Feb-20 11:33N 32°45' W 117°47'1413.8
2015-Feb-20 10:33N 32°57' W 117°54'1313.2
2015-Feb-20 09:33N 33°09' W 118°03'7 6.8
2015-Feb-20 08:33N 33°14' W 118°07'0 0.4
2015-Feb-20 07:33N 33°15' W 118°07'1 1.5
2015-Feb-20 06:33N 33°16' W 118°07'9 8.8
2015-Feb-20 05:33N 33°25' W 118°09'10 9.9
2015-Feb-20 04:33N 33°34' W 118°13'6 5.7
2015-Feb-20 03:33N 33°40' W 118°12'6 6.3
2015-Feb-20 02:34N 33°46' W 118°13'0 0.3
2015-Feb-20 01:32N 33°46' W 118°14'0 0.0
2015-Feb-20 00:32N 33°46' W 118°14'0 0.0
2015-Feb-19 23:32N 33°46' W 118°14'0 0.0
2015-Feb-19 22:32N 33°46' W 118°14'0 0.0
2015-Feb-19 21:32N 33°46' W 118°14'0 0.0
2015-Feb-19 20:32N 33°46' W 118°14'0 0.0
2015-Feb-19 19:32N 33°46' W 118°14'0 0.0
2015-Feb-19 18:32N 33°46' W 118°14'0 0.0
2015-Feb-19 17:32N 33°46' W 118°14'0 0.0
2015-Feb-19 16:29N 33°46' W 118°14'0 0.0
2015-Feb-19 15:32N 33°46' W 118°14'0 0.0
2015-Feb-19 14:32N 33°46' W 118°14'0 0.0
2015-Feb-19 13:32N 33°46' W 118°14'0 0.0
2015-Feb-19 12:32N 33°46' W 118°14'0 0.0
2015-Feb-19 11:32N 33°46' W 118°14'0 0.0
2015-Feb-19 10:32N 33°46' W 118°14'0 0.0
2015-Feb-19 09:32N 33°46' W 118°14'0 0.0
2015-Feb-19 08:32N 33°46' W 118°14'0 0.0
2015-Feb-19 07:32N 33°46' W 118°14'0 0.0
2015-Feb-19 06:32N 33°46' W 118°14'0 0.0
2015-Feb-19 05:32N 33°46' W 118°14'0 0.0
2015-Feb-19 04:32N 33°46' W 118°14'0 0.0
2015-Feb-19 03:32N 33°46' W 118°14'0 0.1
2015-Feb-19 02:32N 33°46' W 118°14'0 0.1
2015-Feb-19 01:32N 33°46' W 118°14'0 0.0
2015-Feb-19 00:32N 33°46' W 118°14'0 0.0
2015-Feb-18 23:32N 33°46' W 118°14'0 0.0
2015-Feb-18 22:32N 33°46' W 118°14'0 0.0
2015-Feb-18 21:32N 33°46' W 118°14'0 0.0
2015-Feb-18 20:32N 33°46' W 118°14'0 0.0
2015-Feb-18 19:32N 33°46' W 118°14'0 0.0
2015-Feb-18 18:32N 33°46' W 118°14'0 0.0
2015-Feb-18 17:32N 33°46' W 118°14'0 0.0
2015-Feb-18 16:32N 33°46' W 118°14'0 0.0
2015-Feb-18 15:32N 33°46' W 118°14'0 0.0
2015-Feb-18 14:32N 33°46' W 118°14'0 0.0
2015-Feb-18 13:32N 33°46' W 118°14'0 0.0
2015-Feb-18 12:32N 33°46' W 118°14'0 0.0
2015-Feb-18 11:32N 33°46' W 118°14'0 0.0
2015-Feb-18 10:32N 33°46' W 118°14'0 0.0
2015-Feb-18 09:32N 33°46' W 118°14'0 0.0
2015-Feb-18 08:32N 33°46' W 118°14'0 0.0
2015-Feb-18 07:32N 33°46' W 118°14'0 0.0
2015-Feb-18 06:32N 33°46' W 118°14'0 0.0
2015-Feb-18 05:32N 33°46' W 118°14'0 0.0
2015-Feb-18 04:32N 33°46' W 118°14'0 0.0
2015-Feb-18 03:32N 33°46' W 118°14'0 0.0
2015-Feb-18 02:32N 33°46' W 118°14'0 0.0
2015-Feb-18 01:33N 33°46' W 118°14'0 0.0
2015-Feb-18 00:32N 33°46' W 118°14'0 0.0
2015-Feb-17 23:32N 33°46' W 118°14'0 0.0
2015-Feb-17 22:32N 33°46' W 118°14'0 0.0
2015-Feb-17 21:32N 33°46' W 118°14'0 0.0
2015-Feb-17 20:32N 33°46' W 118°14'0 0.0
2015-Feb-17 19:32N 33°46' W 118°14'0 0.0
2015-Feb-17 17:32N 33°46' W 118°14'0 0.0
2015-Feb-17 16:32N 33°46' W 118°14'0 0.0
2015-Feb-17 15:32N 33°46' W 118°14'0 0.0
2015-Feb-17 14:32N 33°46' W 118°14'0 0.0
2015-Feb-17 13:32N 33°46' W 118°14'0 0.0
2015-Feb-17 12:32N 33°46' W 118°14'0 0.0
2015-Feb-17 11:32N 33°46' W 118°14'0 0.0
2015-Feb-17 10:32N 33°46' W 118°14'0 0.0
2015-Feb-17 09:32N 33°46' W 118°14'0 0.0
2015-Feb-17 08:32N 33°46' W 118°14'0 0.0
2015-Feb-17 07:32N 33°46' W 118°14'0 0.0
2015-Feb-17 06:32N 33°46' W 118°14'0 0.0
2015-Feb-17 05:33N 33°46' W 118°14'0 0.0
2015-Feb-17 04:33N 33°46' W 118°14'0 0.0
2015-Feb-17 03:33N 33°46' W 118°14'0 0.0
2015-Feb-17 02:33N 33°46' W 118°14'0 0.0
2015-Feb-17 01:33N 33°46' W 118°14'0 0.0
2015-Feb-17 00:33N 33°46' W 118°14'0 0.0
2015-Feb-16 23:33N 33°46' W 118°14'0 0.0
2015-Feb-16 22:33N 33°46' W 118°14'0 0.0
2015-Feb-16 21:33N 33°46' W 118°14'0 0.0
2015-Feb-16 20:33N 33°46' W 118°14'0 0.0
2015-Feb-16 19:33N 33°46' W 118°14'0 0.0
2015-Feb-16 18:33N 33°46' W 118°14'0 0.0
2015-Feb-16 17:33N 33°46' W 118°14'0 0.0
2015-Feb-16 16:33N 33°46' W 118°14'0 0.0
2015-Feb-16 15:33N 33°46' W 118°14'0 0.0
2015-Feb-16 14:33N 33°46' W 118°14'0 0.0
2015-Feb-16 13:33N 33°46' W 118°14'0 0.0
2015-Feb-16 12:33N 33°46' W 118°14'0 0.0
2015-Feb-16 11:33N 33°46' W 118°14'0 0.0
2015-Feb-16 10:33N 33°46' W 118°14'0 0.0
2015-Feb-16 09:33N 33°46' W 118°14'0 0.0
2015-Feb-16 08:33N 33°46' W 118°14'0 0.0
2015-Feb-16 07:33N 33°46' W 118°14'0 0.0
2015-Feb-16 06:33N 33°46' W 118°14'0 0.0
2015-Feb-16 05:33N 33°46' W 118°14'0 0.0
2015-Feb-16 04:33N 33°46' W 118°14'0 0.0
2015-Feb-16 03:33N 33°46' W 118°14'0 0.0
2015-Feb-16 02:33N 33°46' W 118°14'0 0.0
2015-Feb-16 01:33N 33°46' W 118°14'0 0.0
2015-Feb-16 00:33N 33°46' W 118°14'0 0.0
2015-Feb-15 23:33N 33°46' W 118°14'0 0.0
2015-Feb-15 22:33N 33°46' W 118°14'0 0.0
2015-Feb-15 21:33N 33°46' W 118°14'0 0.0
2015-Feb-15 20:33N 33°46' W 118°14'0 0.0
2015-Feb-15 19:33N 33°46' W 118°14'0 0.0
2015-Feb-15 18:33N 33°46' W 118°14'0 0.0
2015-Feb-15 17:33N 33°46' W 118°14'0 0.0
2015-Feb-15 16:33N 33°46' W 118°14'0 0.0
2015-Feb-15 15:33N 33°46' W 118°14'0 0.0
2015-Feb-15 14:33N 33°46' W 118°14'0 0.0
2015-Feb-15 13:33N 33°46' W 118°14'0 0.0
2015-Feb-15 12:33N 33°46' W 118°14'0 0.0
2015-Feb-15 11:33N 33°46' W 118°14'0 0.0
2015-Feb-15 10:33N 33°46' W 118°14'0 0.0
2015-Feb-15 09:33N 33°46' W 118°14'0 0.0
2015-Feb-15 08:33N 33°46' W 118°14'0 0.0
2015-Feb-15 07:33N 33°46' W 118°14'0 0.0
2015-Feb-15 06:33N 33°46' W 118°14'0 0.0
2015-Feb-15 05:33N 33°46' W 118°14'0 0.0
2015-Feb-15 04:33N 33°46' W 118°14'0 0.0
2015-Feb-15 03:33N 33°46' W 118°14'0 0.0
2015-Feb-15 02:33N 33°46' W 118°14'0 0.0
2015-Feb-15 01:27N 33°46' W 118°14'0 0.0
2015-Feb-15 00:33N 33°46' W 118°14'0 0.0
2015-Feb-14 23:33N 33°46' W 118°14'0 0.0
2015-Feb-14 22:33N 33°46' W 118°14'0 0.0
2015-Feb-14 21:33N 33°46' W 118°14'0 0.0
2015-Feb-14 20:33N 33°46' W 118°14'0 0.0
2015-Feb-14 19:33N 33°46' W 118°14'0 0.0
2015-Feb-14 18:33N 33°46' W 118°14'0 0.0
2015-Feb-14 17:33N 33°46' W 118°14'0 0.0
2015-Feb-14 16:33N 33°46' W 118°14'0 0.0
2015-Feb-14 15:33N 33°46' W 118°14'0 0.0
2015-Feb-14 14:33N 33°46' W 118°14'0 0.0
2015-Feb-14 13:33N 33°46' W 118°14'0 0.0
2015-Feb-14 12:33N 33°46' W 118°14'0 0.0
2015-Feb-14 11:33N 33°46' W 118°14'0 0.0
2015-Feb-14 10:33N 33°46' W 118°14'0 0.0
2015-Feb-14 09:33N 33°46' W 118°14'0 0.0
2015-Feb-14 08:33N 33°46' W 118°14'0 0.0
2015-Feb-14 07:33N 33°46' W 118°14'0 0.0
2015-Feb-14 06:33N 33°46' W 118°14'0 0.0
2015-Feb-14 05:30N 33°46' W 118°14'0 0.0
2015-Feb-14 04:33N 33°46' W 118°14'0 0.0
2015-Feb-14 03:33N 33°46' W 118°14'0 0.0
2015-Feb-14 02:33N 33°46' W 118°14'0 0.0
2015-Feb-14 01:33N 33°46' W 118°14'0 0.0
2015-Feb-14 00:33N 33°46' W 118°14'0 0.0
2015-Feb-13 23:33N 33°46' W 118°14'0 0.0
2015-Feb-13 22:33N 33°46' W 118°14'0 0.0
2015-Feb-13 21:33N 33°46' W 118°14'0 0.0
2015-Feb-13 20:33N 33°46' W 118°14'0 0.0
2015-Feb-13 19:33N 33°46' W 118°14'0 0.0
2015-Feb-13 18:30N 33°46' W 118°14'0 0.0
2015-Feb-13 17:33N 33°46' W 118°14'0 0.0
2015-Feb-13 16:33N 33°46' W 118°14'0 0.1
2015-Feb-13 15:33N 33°46' W 118°14'0 0.1
2015-Feb-13 14:33N 33°46' W 118°14'0 0.0
2015-Feb-13 13:33N 33°46' W 118°14'0 0.0
2015-Feb-13 12:33N 33°46' W 118°14'0 0.0
2015-Feb-13 11:33N 33°46' W 118°14'0 0.0
2015-Feb-13 10:33N 33°46' W 118°14'0 0.0
2015-Feb-13 09:33N 33°46' W 118°14'0 0.0
2015-Feb-13 08:33N 33°46' W 118°14'0 0.0
2015-Feb-13 07:33N 33°46' W 118°14'0 0.0
2015-Feb-13 06:33N 33°46' W 118°14'0 0.0
2015-Feb-13 05:33N 33°46' W 118°14'0 0.0
2015-Feb-13 04:33N 33°46' W 118°14'0 0.0
2015-Feb-13 03:33N 33°46' W 118°14'0 0.0
2015-Feb-13 02:33N 33°46' W 118°14'0 0.0
2015-Feb-13 01:33N 33°46' W 118°14'0 0.0
2015-Feb-13 00:30N 33°46' W 118°14'0 0.0
2015-Feb-12 20:33N 33°46' W 118°14'0 0.0
2015-Feb-12 19:33N 33°46' W 118°14'0 0.0
2015-Feb-12 18:33N 33°46' W 118°14'0 0.0
2015-Feb-12 17:33N 33°46' W 118°14'0 0.0
2015-Feb-12 16:33N 33°46' W 118°14'0 0.0
2015-Feb-12 15:33N 33°46' W 118°14'0 0.0
2015-Feb-12 14:33N 33°46' W 118°14'0 0.0
2015-Feb-12 13:33N 33°46' W 118°14'0 0.0
2015-Feb-12 12:33N 33°46' W 118°14'0 0.0
2015-Feb-12 11:33N 33°46' W 118°14'0 0.0
2015-Feb-12 10:33N 33°46' W 118°14'0 0.0
2015-Feb-12 09:33N 33°46' W 118°14'0 0.0
2015-Feb-12 08:33N 33°46' W 118°14'0 0.0
2015-Feb-12 07:33N 33°46' W 118°14'0 0.0
2015-Feb-12 06:33N 33°46' W 118°14'0 0.0
2015-Feb-12 05:33N 33°46' W 118°14'0 0.0
2015-Feb-12 04:33N 33°46' W 118°14'0 0.0
2015-Feb-12 03:33N 33°46' W 118°14'0 0.0
2015-Feb-12 02:33N 33°46' W 118°14'0 0.0
2015-Feb-12 01:33N 33°46' W 118°14'0 0.0
2015-Feb-12 00:33N 33°46' W 118°14'0 0.0
2015-Feb-11 23:33N 33°46' W 118°14'0 0.0
2015-Feb-11 22:33N 33°46' W 118°14'0 0.0
2015-Feb-11 21:33N 33°46' W 118°14'0 0.0
2015-Feb-11 20:33N 33°46' W 118°14'0 0.0
2015-Feb-11 19:33N 33°46' W 118°14'0 0.0
2015-Feb-11 18:33N 33°46' W 118°14'0 0.0
2015-Feb-11 17:33N 33°46' W 118°14'0 0.0
2015-Feb-11 16:33N 33°46' W 118°14'0 0.0
2015-Feb-11 15:33N 33°46' W 118°14'0 0.0
2015-Feb-11 14:33N 33°46' W 118°14'0 0.0
2015-Feb-11 13:33N 33°46' W 118°14'0 0.0
2015-Feb-11 12:33N 33°46' W 118°14'0 0.0
2015-Feb-11 11:33N 33°46' W 118°14'0 0.0
2015-Feb-11 10:33N 33°46' W 118°14'0 0.0
2015-Feb-11 09:33N 33°46' W 118°14'0 0.0
2015-Feb-11 08:33N 33°46' W 118°14'0 0.0
2015-Feb-11 07:33N 33°46' W 118°14'0 0.0
2015-Feb-11 06:33N 33°46' W 118°14'0 0.0
2015-Feb-11 05:33N 33°46' W 118°14'0 0.0
2015-Feb-11 04:33N 33°46' W 118°14'0 0.4
2015-Feb-11 03:33N 33°46' W 118°13'8 7.7
2015-Feb-11 02:33N 33°40' W 118°08'0 0.0
2015-Feb-11 01:32N 33°40' W 118°07'0 0.0
2015-Feb-11 00:32N 33°40' W 118°07'0 0.0
2015-Feb-10 23:32N 33°40' W 118°07'  
Track history (hours):
 
Tides and Currents Weather Stations Pressure Air Temp Water Temp Dewpoint Dewpoint Depression Visibility Wind Speed Wind Dir Waves Ship Positions

Guenther Schulte

Last reported at 2015-Feb-20 23:27 UTC. Time now 2015-Mar-02 11:18 UTC.
Position N 30°06' W 119°33'.
Warning: this ship's position is 9 days out of date.

Length 231 m; draft 12.3 m.

Type: Ship (hazmat cat C). MMSI: 477728800.

Date/timePositionNaut miles runAvg speedWind from/ knotsBaromVisibWave heightAir tempDewpointWater temp
2015-Feb-20 23:27N 30°06' W 119°33'1719.3
2015-Feb-20 22:33N 30°19' W 119°20'1919.3
2015-Feb-20 21:33N 30°34' W 119°05'1919.0
2015-Feb-20 20:33N 30°48' W 118°51'1818.4
2015-Feb-20 19:33N 31°01' W 118°36'1818.3
2015-Feb-20 18:33N 31°15' W 118°21'1918.3
2015-Feb-20 17:33N 31°28' W 118°07'1818.3
2015-Feb-20 16:33N 31°42' W 117°52'1615.4
2015-Feb-20 15:31N 31°53' W 117°39'1614.5
2015-Feb-20 14:26N 32°09' W 117°38'1213.4
2015-Feb-20 13:33N 32°21' W 117°38'1313.2
2015-Feb-20 12:33N 32°34' W 117°38'1413.6
2015-Feb-20 11:33N 32°45' W 117°47'1413.8
2015-Feb-20 10:33N 32°57' W 117°54'1313.2
2015-Feb-20 09:33N 33°09' W 118°03'7 6.8
2015-Feb-20 08:33N 33°14' W 118°07'0 0.4
2015-Feb-20 07:33N 33°15' W 118°07'1 1.5
2015-Feb-20 06:33N 33°16' W 118°07'9 8.8
2015-Feb-20 05:33N 33°25' W 118°09'10 9.9
2015-Feb-20 04:33N 33°34' W 118°13'6 5.7
2015-Feb-20 03:33N 33°40' W 118°12'6 6.3
2015-Feb-20 02:34N 33°46' W 118°13'0 0.3
2015-Feb-20 01:32N 33°46' W 118°14'0 0.0
2015-Feb-20 00:32N 33°46' W 118°14'0 0.0
2015-Feb-19 23:32N 33°46' W 118°14'0 0.0
2015-Feb-19 22:32N 33°46' W 118°14'0 0.0
2015-Feb-19 21:32N 33°46' W 118°14'0 0.0
2015-Feb-19 20:32N 33°46' W 118°14'0 0.0
2015-Feb-19 19:32N 33°46' W 118°14'0 0.0
2015-Feb-19 18:32N 33°46' W 118°14'0 0.0
2015-Feb-19 17:32N 33°46' W 118°14'0 0.0
2015-Feb-19 16:29N 33°46' W 118°14'0 0.0
2015-Feb-19 15:32N 33°46' W 118°14'0 0.0
2015-Feb-19 14:32N 33°46' W 118°14'0 0.0
2015-Feb-19 13:32N 33°46' W 118°14'0 0.0
2015-Feb-19 12:32N 33°46' W 118°14'0 0.0
2015-Feb-19 11:32N 33°46' W 118°14'0 0.0
2015-Feb-19 10:32N 33°46' W 118°14'0 0.0
2015-Feb-19 09:32N 33°46' W 118°14'0 0.0
2015-Feb-19 08:32N 33°46' W 118°14'0 0.0
2015-Feb-19 07:32N 33°46' W 118°14'0 0.0
2015-Feb-19 06:32N 33°46' W 118°14'0 0.0
2015-Feb-19 05:32N 33°46' W 118°14'0 0.0
2015-Feb-19 04:32N 33°46' W 118°14'0 0.0
2015-Feb-19 03:32N 33°46' W 118°14'0 0.1
2015-Feb-19 02:32N 33°46' W 118°14'0 0.1
2015-Feb-19 01:32N 33°46' W 118°14'0 0.0
2015-Feb-19 00:32N 33°46' W 118°14'0 0.0
2015-Feb-18 23:32N 33°46' W 118°14'0 0.0
2015-Feb-18 22:32N 33°46' W 118°14'0 0.0
2015-Feb-18 21:32N 33°46' W 118°14'0 0.0
2015-Feb-18 20:32N 33°46' W 118°14'0 0.0
2015-Feb-18 19:32N 33°46' W 118°14'0 0.0
2015-Feb-18 18:32N 33°46' W 118°14'0 0.0
2015-Feb-18 17:32N 33°46' W 118°14'0 0.0
2015-Feb-18 16:32N 33°46' W 118°14'0 0.0
2015-Feb-18 15:32N 33°46' W 118°14'0 0.0
2015-Feb-18 14:32N 33°46' W 118°14'0 0.0
2015-Feb-18 13:32N 33°46' W 118°14'0 0.0
2015-Feb-18 12:32N 33°46' W 118°14'0 0.0
2015-Feb-18 11:32N 33°46' W 118°14'0 0.0
2015-Feb-18 10:32N 33°46' W 118°14'0 0.0
2015-Feb-18 09:32N 33°46' W 118°14'0 0.0
2015-Feb-18 08:32N 33°46' W 118°14'0 0.0
2015-Feb-18 07:32N 33°46' W 118°14'0 0.0
2015-Feb-18 06:32N 33°46' W 118°14'0 0.0
2015-Feb-18 05:32N 33°46' W 118°14'0 0.0
2015-Feb-18 04:32N 33°46' W 118°14'0 0.0
2015-Feb-18 03:32N 33°46' W 118°14'0 0.0
2015-Feb-18 02:32N 33°46' W 118°14'0 0.0
2015-Feb-18 01:33N 33°46' W 118°14'0 0.0
2015-Feb-18 00:32N 33°46' W 118°14'0 0.0
2015-Feb-17 23:32N 33°46' W 118°14'0 0.0
2015-Feb-17 22:32N 33°46' W 118°14'0 0.0
2015-Feb-17 21:32N 33°46' W 118°14'0 0.0
2015-Feb-17 20:32N 33°46' W 118°14'0 0.0
2015-Feb-17 19:32N 33°46' W 118°14'0 0.0
2015-Feb-17 17:32N 33°46' W 118°14'0 0.0
2015-Feb-17 16:32N 33°46' W 118°14'0 0.0
2015-Feb-17 15:32N 33°46' W 118°14'0 0.0
2015-Feb-17 14:32N 33°46' W 118°14'0 0.0
2015-Feb-17 13:32N 33°46' W 118°14'0 0.0
2015-Feb-17 12:32N 33°46' W 118°14'0 0.0
2015-Feb-17 11:32N 33°46' W 118°14'0 0.0
2015-Feb-17 10:32N 33°46' W 118°14'0 0.0
2015-Feb-17 09:32N 33°46' W 118°14'0 0.0
2015-Feb-17 08:32N 33°46' W 118°14'0 0.0
2015-Feb-17 07:32N 33°46' W 118°14'0 0.0
2015-Feb-17 06:32N 33°46' W 118°14'0 0.0
2015-Feb-17 05:33N 33°46' W 118°14'0 0.0
2015-Feb-17 04:33N 33°46' W 118°14'0 0.0
2015-Feb-17 03:33N 33°46' W 118°14'0 0.0
2015-Feb-17 02:33N 33°46' W 118°14'0 0.0
2015-Feb-17 01:33N 33°46' W 118°14'0 0.0
2015-Feb-17 00:33N 33°46' W 118°14'0 0.0
2015-Feb-16 23:33N 33°46' W 118°14'0 0.0
2015-Feb-16 22:33N 33°46' W 118°14'0 0.0
2015-Feb-16 21:33N 33°46' W 118°14'0 0.0
2015-Feb-16 20:33N 33°46' W 118°14'0 0.0
2015-Feb-16 19:33N 33°46' W 118°14'0 0.0
2015-Feb-16 18:33N 33°46' W 118°14'0 0.0
2015-Feb-16 17:33N 33°46' W 118°14'0 0.0
2015-Feb-16 16:33N 33°46' W 118°14'0 0.0
2015-Feb-16 15:33N 33°46' W 118°14'0 0.0
2015-Feb-16 14:33N 33°46' W 118°14'0 0.0
2015-Feb-16 13:33N 33°46' W 118°14'0 0.0
2015-Feb-16 12:33N 33°46' W 118°14'0 0.0
2015-Feb-16 11:33N 33°46' W 118°14'0 0.0
2015-Feb-16 10:33N 33°46' W 118°14'0 0.0
2015-Feb-16 09:33N 33°46' W 118°14'0 0.0
2015-Feb-16 08:33N 33°46' W 118°14'0 0.0
2015-Feb-16 07:33N 33°46' W 118°14'0 0.0
2015-Feb-16 06:33N 33°46' W 118°14'0 0.0
2015-Feb-16 05:33N 33°46' W 118°14'0 0.0
2015-Feb-16 04:33N 33°46' W 118°14'0 0.0
2015-Feb-16 03:33N 33°46' W 118°14'0 0.0
2015-Feb-16 02:33N 33°46' W 118°14'0 0.0
2015-Feb-16 01:33N 33°46' W 118°14'0 0.0
2015-Feb-16 00:33N 33°46' W 118°14'0 0.0
2015-Feb-15 23:33N 33°46' W 118°14'0 0.0
2015-Feb-15 22:33N 33°46' W 118°14'0 0.0
2015-Feb-15 21:33N 33°46' W 118°14'0 0.0
2015-Feb-15 20:33N 33°46' W 118°14'0 0.0
2015-Feb-15 19:33N 33°46' W 118°14'0 0.0
2015-Feb-15 18:33N 33°46' W 118°14'0 0.0
2015-Feb-15 17:33N 33°46' W 118°14'0 0.0
2015-Feb-15 16:33N 33°46' W 118°14'0 0.0
2015-Feb-15 15:33N 33°46' W 118°14'0 0.0
2015-Feb-15 14:33N 33°46' W 118°14'0 0.0
2015-Feb-15 13:33N 33°46' W 118°14'0 0.0
2015-Feb-15 12:33N 33°46' W 118°14'0 0.0
2015-Feb-15 11:33N 33°46' W 118°14'0 0.0
2015-Feb-15 10:33N 33°46' W 118°14'0 0.0
2015-Feb-15 09:33N 33°46' W 118°14'0 0.0
2015-Feb-15 08:33N 33°46' W 118°14'0 0.0
2015-Feb-15 07:33N 33°46' W 118°14'0 0.0
2015-Feb-15 06:33N 33°46' W 118°14'0 0.0
2015-Feb-15 05:33N 33°46' W 118°14'0 0.0
2015-Feb-15 04:33N 33°46' W 118°14'0 0.0
2015-Feb-15 03:33N 33°46' W 118°14'0 0.0
2015-Feb-15 02:33N 33°46' W 118°14'0 0.0
2015-Feb-15 01:27N 33°46' W 118°14'0 0.0
2015-Feb-15 00:33N 33°46' W 118°14'0 0.0
2015-Feb-14 23:33N 33°46' W 118°14'0 0.0
2015-Feb-14 22:33N 33°46' W 118°14'0 0.0
2015-Feb-14 21:33N 33°46' W 118°14'0 0.0
2015-Feb-14 20:33N 33°46' W 118°14'0 0.0
2015-Feb-14 19:33N 33°46' W 118°14'0 0.0
2015-Feb-14 18:33N 33°46' W 118°14'0 0.0
2015-Feb-14 17:33N 33°46' W 118°14'0 0.0
2015-Feb-14 16:33N 33°46' W 118°14'0 0.0
2015-Feb-14 15:33N 33°46' W 118°14'0 0.0
2015-Feb-14 14:33N 33°46' W 118°14'0 0.0
2015-Feb-14 13:33N 33°46' W 118°14'0 0.0
2015-Feb-14 12:33N 33°46' W 118°14'0 0.0
2015-Feb-14 11:33N 33°46' W 118°14'0 0.0
2015-Feb-14 10:33N 33°46' W 118°14'0 0.0
2015-Feb-14 09:33N 33°46' W 118°14'0 0.0
2015-Feb-14 08:33N 33°46' W 118°14'0 0.0
2015-Feb-14 07:33N 33°46' W 118°14'0 0.0
2015-Feb-14 06:33N 33°46' W 118°14'0 0.0
2015-Feb-14 05:30N 33°46' W 118°14'0 0.0
2015-Feb-14 04:33N 33°46' W 118°14'0 0.0
2015-Feb-14 03:33N 33°46' W 118°14'0 0.0
2015-Feb-14 02:33N 33°46' W 118°14'0 0.0
2015-Feb-14 01:33N 33°46' W 118°14'0 0.0
2015-Feb-14 00:33N 33°46' W 118°14'0 0.0
2015-Feb-13 23:33N 33°46' W 118°14'0 0.0
2015-Feb-13 22:33N 33°46' W 118°14'0 0.0
2015-Feb-13 21:33N 33°46' W 118°14'0 0.0
2015-Feb-13 20:33N 33°46' W 118°14'0 0.0
2015-Feb-13 19:33N 33°46' W 118°14'0 0.0
2015-Feb-13 18:30N 33°46' W 118°14'0 0.0
2015-Feb-13 17:33N 33°46' W 118°14'0 0.0
2015-Feb-13 16:33N 33°46' W 118°14'0 0.1
2015-Feb-13 15:33N 33°46' W 118°14'0 0.1
2015-Feb-13 14:33N 33°46' W 118°14'0 0.0
2015-Feb-13 13:33N 33°46' W 118°14'0 0.0
2015-Feb-13 12:33N 33°46' W 118°14'0 0.0
2015-Feb-13 11:33N 33°46' W 118°14'0 0.0
2015-Feb-13 10:33N 33°46' W 118°14'0 0.0
2015-Feb-13 09:33N 33°46' W 118°14'0 0.0
2015-Feb-13 08:33N 33°46' W 118°14'0 0.0
2015-Feb-13 07:33N 33°46' W 118°14'0 0.0
2015-Feb-13 06:33N 33°46' W 118°14'0 0.0
2015-Feb-13 05:33N 33°46' W 118°14'0 0.0
2015-Feb-13 04:33N 33°46' W 118°14'0 0.0
2015-Feb-13 03:33N 33°46' W 118°14'0 0.0
2015-Feb-13 02:33N 33°46' W 118°14'0 0.0
2015-Feb-13 01:33N 33°46' W 118°14'0 0.0
2015-Feb-13 00:30N 33°46' W 118°14'0 0.0
2015-Feb-12 20:33N 33°46' W 118°14'0 0.0
2015-Feb-12 19:33N 33°46' W 118°14'0 0.0
2015-Feb-12 18:33N 33°46' W 118°14'0 0.0
2015-Feb-12 17:33N 33°46' W 118°14'0 0.0
2015-Feb-12 16:33N 33°46' W 118°14'0 0.0
2015-Feb-12 15:33N 33°46' W 118°14'0 0.0
2015-Feb-12 14:33N 33°46' W 118°14'0 0.0
2015-Feb-12 13:33N 33°46' W 118°14'0 0.0
2015-Feb-12 12:33N 33°46' W 118°14'0 0.0
2015-Feb-12 11:33N 33°46' W 118°14'0 0.0
2015-Feb-12 10:33N 33°46' W 118°14'0 0.0
2015-Feb-12 09:33N 33°46' W 118°14'0 0.0
2015-Feb-12 08:33N 33°46' W 118°14'0 0.0
2015-Feb-12 07:33N 33°46' W 118°14'0 0.0
2015-Feb-12 06:33N 33°46' W 118°14'0 0.0
2015-Feb-12 05:33N 33°46' W 118°14'0 0.0
2015-Feb-12 04:33N 33°46' W 118°14'0 0.0
2015-Feb-12 03:33N 33°46' W 118°14'0 0.0
2015-Feb-12 02:33N 33°46' W 118°14'0 0.0
2015-Feb-12 01:33N 33°46' W 118°14'0 0.0
2015-Feb-12 00:33N 33°46' W 118°14'0 0.0
2015-Feb-11 23:33N 33°46' W 118°14'0 0.0
2015-Feb-11 22:33N 33°46' W 118°14'0 0.0
2015-Feb-11 21:33N 33°46' W 118°14'0 0.0
2015-Feb-11 20:33N 33°46' W 118°14'0 0.0
2015-Feb-11 19:33N 33°46' W 118°14'0 0.0
2015-Feb-11 18:33N 33°46' W 118°14'0 0.0
2015-Feb-11 17:33N 33°46' W 118°14'0 0.0
2015-Feb-11 16:33N 33°46' W 118°14'0 0.0
2015-Feb-11 15:33N 33°46' W 118°14'0 0.0
2015-Feb-11 14:33N 33°46' W 118°14'0 0.0
2015-Feb-11 13:33N 33°46' W 118°14'0 0.0
2015-Feb-11 12:33N 33°46' W 118°14'0 0.0
2015-Feb-11 11:33N 33°46' W 118°14'0 0.0
2015-Feb-11 10:33N 33°46' W 118°14'0 0.0
2015-Feb-11 09:33N 33°46' W 118°14'0 0.0
2015-Feb-11 08:33N 33°46' W 118°14'0 0.0
2015-Feb-11 07:33N 33°46' W 118°14'0 0.0
2015-Feb-11 06:33N 33°46' W 118°14'0 0.0
2015-Feb-11 05:33N 33°46' W 118°14'0 0.0
2015-Feb-11 04:33N 33°46' W 118°14'0 0.4
2015-Feb-11 03:33N 33°46' W 118°13'8 7.7
2015-Feb-11 02:33N 33°40' W 118°08'0 0.0
2015-Feb-11 01:32N 33°40' W 118°07'0 0.0
2015-Feb-11 00:32N 33°40' W 118°07'0 0.0
2015-Feb-10 23:32N 33°40' W 118°07'  

Dump ship's entire track history